Archers Lodge, North Carolina
Current Conditions -  °F | °C
As of 6:15 PM on Tuesday 25 Nov 2014 (Local Time) from KJNX Reporting Station
Light Rain Light Rain  
Wind Chill: 12°   Ceiling: 2400
Heat Index: 12°   Visibility: 10mi
Dew Point: 12°   Wind: 0mph
Humidity: 100%   Direction: NA
Pressure: 30.08"   Gusts: NA
Location:  35.6101°N, 78.4715°W
Report Text: KJNX 252315Z AUTO 00000KT 10SM -RA BKN024 OVC050 12/12 A3008 RMK AO2
Loading
Personal Weather Stations






























Interactive Weather Map New forecast layout! Learn more

10-Day Weather Forecast

Advertisements
Track Severe Weather on mobile